sensor_id;sensor_type;location;lat;lon;timestamp;temperature;humidity
51982;DHT22;37998;53.416;6.730;2023-09-18T00:02:14;17.50;99.90
51982;DHT22;37998;53.416;6.730;2023-09-18T00:04:40;17.50;99.90
51982;DHT22;37998;53.416;6.730;2023-09-18T00:07:06;17.50;99.90
51982;DHT22;37998;53.416;6.730;2023-09-18T00:09:32;17.50;99.90
51982;DHT22;37998;53.416;6.730;2023-09-18T00:11:58;17.50;99.90
51982;DHT22;37998;53.416;6.730;2023-09-18T00:14:24;17.50;99.90
51982;DHT22;37998;53.416;6.730;2023-09-18T00:16:51;17.50;99.90
51982;DHT22;37998;53.416;6.730;2023-09-18T00:19:17;17.60;99.90
51982;DHT22;37998;53.416;6.730;2023-09-18T00:21:43;17.50;99.90
51982;DHT22;37998;53.416;6.730;2023-09-18T00:24:09;17.60;99.90
51982;DHT22;37998;53.416;6.730;2023-09-18T00:26:35;17.60;99.90
51982;DHT22;37998;53.416;6.730;2023-09-18T00:29:01;17.50;99.90
51982;DHT22;37998;53.416;6.730;2023-09-18T00:31:27;17.50;99.90
51982;DHT22;37998;53.416;6.730;2023-09-18T00:33:52;17.50;99.90
51982;DHT22;37998;53.416;6.730;2023-09-18T00:36:18;17.50;99.90
51982;DHT22;37998;53.416;6.730;2023-09-18T00:38:44;17.50;99.90
51982;DHT22;37998;53.416;6.730;2023-09-18T00:41:10;17.50;99.90
51982;DHT22;37998;53.416;6.730;2023-09-18T00:43:36;17.50;99.90
51982;DHT22;37998;53.416;6.730;2023-09-18T00:46:03;17.60;99.90
51982;DHT22;37998;53.416;6.730;2023-09-18T00:48:29;17.60;99.90
51982;DHT22;37998;53.416;6.730;2023-09-18T00:50:55;17.60;99.90
51982;DHT22;37998;53.416;6.730;2023-09-18T00:53:23;17.70;99.90
51982;DHT22;37998;53.416;6.730;2023-09-18T00:55:54;17.80;99.90
51982;DHT22;37998;53.416;6.730;2023-09-18T00:58:22;17.80;99.90
51982;DHT22;37998;53.416;6.730;2023-09-18T01:00:48;17.80;99.90
51982;DHT22;37998;53.416;6.730;2023-09-18T01:03:16;17.80;99.90
51982;DHT22;37998;53.416;6.730;2023-09-18T01:05:45;17.90;99.90
51982;DHT22;37998;53.416;6.730;2023-09-18T01:08:11;17.90;99.90
51982;DHT22;37998;53.416;6.730;2023-09-18T01:10:47;18.00;99.90
51982;DHT22;37998;53.416;6.730;2023-09-18T01:13:18;18.00;99.90
51982;DHT22;37998;53.416;6.730;2023-09-18T01:15:56;18.00;99.90
51982;DHT22;37998;53.416;6.730;2023-09-18T01:18:23;18.10;99.90
51982;DHT22;37998;53.416;6.730;2023-09-18T01:20:49;18.00;99.90
51982;DHT22;37998;53.416;6.730;2023-09-18T01:23:15;18.00;99.90
51982;DHT22;37998;53.416;6.730;2023-09-18T01:25:41;18.10;99.90
51982;DHT22;37998;53.416;6.730;2023-09-18T01:28:07;18.10;99.90
51982;DHT22;37998;53.416;6.730;2023-09-18T01:30:33;18.10;99.90
51982;DHT22;37998;53.416;6.730;2023-09-18T01:33:01;18.10;99.90
51982;DHT22;37998;53.416;6.730;2023-09-18T01:35:29;18.10;99.90
51982;DHT22;37998;53.416;6.730;2023-09-18T01:37:57;18.10;99.90
51982;DHT22;37998;53.416;6.730;2023-09-18T01:40:24;18.10;99.90
51982;DHT22;37998;53.416;6.730;2023-09-18T01:42:51;18.10;99.90
51982;DHT22;37998;53.416;6.730;2023-09-18T01:45:17;18.10;99.90
51982;DHT22;37998;53.416;6.730;2023-09-18T01:47:43;18.10;99.90
51982;DHT22;37998;53.416;6.730;2023-09-18T01:50:09;18.10;99.90
51982;DHT22;37998;53.416;6.730;2023-09-18T01:52:36;18.10;99.90
51982;DHT22;37998;53.416;6.730;2023-09-18T01:55:02;18.10;99.90
51982;DHT22;37998;53.416;6.730;2023-09-18T01:57:31;18.10;99.90
51982;DHT22;37998;53.416;6.730;2023-09-18T01:59:57;18.00;99.90
51982;DHT22;37998;53.416;6.730;2023-09-18T02:02:23;18.10;99.90
51982;DHT22;37998;53.416;6.730;2023-09-18T02:04:49;18.00;99.90
51982;DHT22;37998;53.416;6.730;2023-09-18T02:07:15;18.10;99.90
51982;DHT22;37998;53.416;6.730;2023-09-18T02:09:41;18.10;99.90
51982;DHT22;37998;53.416;6.730;2023-09-18T02:12:07;18.10;99.90
51982;DHT22;37998;53.416;6.730;2023-09-18T02:14:33;18.10;99.90
51982;DHT22;37998;53.416;6.730;2023-09-18T02:17:00;18.00;99.90
51982;DHT22;37998;53.416;6.730;2023-09-18T02:19:26;18.00;99.90
51982;DHT22;37998;53.416;6.730;2023-09-18T02:21:52;18.00;99.90
51982;DHT22;37998;53.416;6.730;2023-09-18T02:24:18;18.00;99.90
51982;DHT22;37998;53.416;6.730;2023-09-18T02:26:44;18.00;99.90
51982;DHT22;37998;53.416;6.730;2023-09-18T02:29:14;18.00;99.90
51982;DHT22;37998;53.416;6.730;2023-09-18T02:31:40;18.00;99.90
51982;DHT22;37998;53.416;6.730;2023-09-18T02:34:06;17.90;99.90
51982;DHT22;37998;53.416;6.730;2023-09-18T02:36:35;17.90;99.90
51982;DHT22;37998;53.416;6.730;2023-09-18T02:39:01;17.90;99.90
51982;DHT22;37998;53.416;6.730;2023-09-18T02:41:28;17.80;99.90
51982;DHT22;37998;53.416;6.730;2023-09-18T02:43:54;17.80;99.90
51982;DHT22;37998;53.416;6.730;2023-09-18T02:46:20;17.80;99.90
51982;DHT22;37998;53.416;6.730;2023-09-18T02:48:46;17.80;99.90
51982;DHT22;37998;53.416;6.730;2023-09-18T02:51:12;17.80;99.90
51982;DHT22;37998;53.416;6.730;2023-09-18T02:53:38;17.90;99.90
51982;DHT22;37998;53.416;6.730;2023-09-18T02:56:04;17.90;99.90
51982;DHT22;37998;53.416;6.730;2023-09-18T02:58:30;17.90;99.90
51982;DHT22;37998;53.416;6.730;2023-09-18T03:00:57;17.90;99.90
51982;DHT22;37998;53.416;6.730;2023-09-18T03:03:27;17.90;99.90
51982;DHT22;37998;53.416;6.730;2023-09-18T03:05:59;18.00;99.90
51982;DHT22;37998;53.416;6.730;2023-09-18T03:08:26;17.90;99.90
51982;DHT22;37998;53.416;6.730;2023-09-18T03:10:52;17.90;99.90
51982;DHT22;37998;53.416;6.730;2023-09-18T03:13:18;18.00;99.90
51982;DHT22;37998;53.416;6.730;2023-09-18T03:15:47;18.00;99.90
51982;DHT22;37998;53.416;6.730;2023-09-18T03:18:13;18.00;99.90
51982;DHT22;37998;53.416;6.730;2023-09-18T03:20:41;18.00;99.90
51982;DHT22;37998;53.416;6.730;2023-09-18T03:23:07;18.00;99.90
51982;DHT22;37998;53.416;6.730;2023-09-18T03:25:33;18.00;99.90
51982;DHT22;37998;53.416;6.730;2023-09-18T03:27:59;18.10;99.90
51982;DHT22;37998;53.416;6.730;2023-09-18T03:30:29;18.10;99.90
51982;DHT22;37998;53.416;6.730;2023-09-18T03:32:56;18.00;99.90
51982;DHT22;37998;53.416;6.730;2023-09-18T03:35:24;18.10;99.90
51982;DHT22;37998;53.416;6.730;2023-09-18T03:37:51;18.10;99.90
51982;DHT22;37998;53.416;6.730;2023-09-18T03:40:19;18.10;99.90
51982;DHT22;37998;53.416;6.730;2023-09-18T03:42:46;18.10;99.90
51982;DHT22;37998;53.416;6.730;2023-09-18T03:45:12;18.20;99.90
51982;DHT22;37998;53.416;6.730;2023-09-18T03:47:40;18.10;99.90
51982;DHT22;37998;53.416;6.730;2023-09-18T03:50:11;18.10;99.90
51982;DHT22;37998;53.416;6.730;2023-09-18T03:52:38;18.10;99.90
51982;DHT22;37998;53.416;6.730;2023-09-18T03:55:08;18.10;99.90
51982;DHT22;37998;53.416;6.730;2023-09-18T03:57:34;18.20;99.90
51982;DHT22;37998;53.416;6.730;2023-09-18T04:00:00;18.10;99.90
51982;DHT22;37998;53.416;6.730;2023-09-18T04:02:26;18.10;99.90
51982;DHT22;37998;53.416;6.730;2023-09-18T04:04:53;18.10;99.90
51982;DHT22;37998;53.416;6.730;2023-09-18T04:07:20;18.10;99.90
51982;DHT22;37998;53.416;6.730;2023-09-18T04:09:46;18.10;99.90
51982;DHT22;37998;53.416;6.730;2023-09-18T04:12:12;18.10;99.90
51982;DHT22;37998;53.416;6.730;2023-09-18T04:14:39;18.10;99.90
51982;DHT22;37998;53.416;6.730;2023-09-18T04:17:05;18.10;99.90
51982;DHT22;37998;53.416;6.730;2023-09-18T04:19:31;18.10;99.90
51982;DHT22;37998;53.416;6.730;2023-09-18T04:21:57;18.20;99.90
51982;DHT22;37998;53.416;6.730;2023-09-18T04:24:23;18.10;99.90
51982;DHT22;37998;53.416;6.730;2023-09-18T04:26:49;18.20;99.90
51982;DHT22;37998;53.416;6.730;2023-09-18T04:29:19;18.20;99.90
51982;DHT22;37998;53.416;6.730;2023-09-18T04:31:45;18.20;99.90
51982;DHT22;37998;53.416;6.730;2023-09-18T04:34:11;18.20;99.90
51982;DHT22;37998;53.416;6.730;2023-09-18T04:36:38;18.20;99.90
51982;DHT22;37998;53.416;6.730;2023-09-18T04:39:05;18.20;99.90
51982;DHT22;37998;53.416;6.730;2023-09-18T04:41:33;18.20;99.90
51982;DHT22;37998;53.416;6.730;2023-09-18T04:44:00;18.20;99.90
51982;DHT22;37998;53.416;6.730;2023-09-18T04:46:26;18.20;99.90
51982;DHT22;37998;53.416;6.730;2023-09-18T04:48:52;18.90;99.90
51982;DHT22;37998;53.416;6.730;2023-09-18T04:51:18;18.20;99.90
51982;DHT22;37998;53.416;6.730;2023-09-18T04:53:45;18.20;99.90
51982;DHT22;37998;53.416;6.730;2023-09-18T04:56:11;18.20;99.90
51982;DHT22;37998;53.416;6.730;2023-09-18T04:58:37;18.20;99.90
51982;DHT22;37998;53.416;6.730;2023-09-18T05:01:03;18.20;99.90
51982;DHT22;37998;53.416;6.730;2023-09-18T05:03:35;18.20;99.90
51982;DHT22;37998;53.416;6.730;2023-09-18T05:06:02;18.20;99.90
51982;DHT22;37998;53.416;6.730;2023-09-18T05:08:29;18.20;99.90
51982;DHT22;37998;53.416;6.730;2023-09-18T05:10:55;18.20;99.90
51982;DHT22;37998;53.416;6.730;2023-09-18T05:13:21;18.20;99.90
51982;DHT22;37998;53.416;6.730;2023-09-18T05:15:47;18.20;99.90
51982;DHT22;37998;53.416;6.730;2023-09-18T05:18:13;18.20;99.90
51982;DHT22;37998;53.416;6.730;2023-09-18T05:20:40;18.20;99.90
51982;DHT22;37998;53.416;6.730;2023-09-18T05:23:05;18.30;99.90
51982;DHT22;37998;53.416;6.730;2023-09-18T05:25:32;18.30;99.90
51982;DHT22;37998;53.416;6.730;2023-09-18T05:27:59;18.30;99.90
51982;DHT22;37998;53.416;6.730;2023-09-18T05:30:28;18.30;99.90
51982;DHT22;37998;53.416;6.730;2023-09-18T05:32:55;18.20;99.90
51982;DHT22;37998;53.416;6.730;2023-09-18T05:35:21;18.30;99.90
51982;DHT22;37998;53.416;6.730;2023-09-18T05:37:49;18.30;99.90
51982;DHT22;37998;53.416;6.730;2023-09-18T05:40:16;18.30;99.90
51982;DHT22;37998;53.416;6.730;2023-09-18T05:42:43;18.30;99.90
51982;DHT22;37998;53.416;6.730;2023-09-18T05:45:14;18.30;99.90
51982;DHT22;37998;53.416;6.730;2023-09-18T05:47:41;18.40;99.90
51982;DHT22;37998;53.416;6.730;2023-09-18T05:50:12;18.30;99.90
51982;DHT22;37998;53.416;6.730;2023-09-18T05:52:43;18.40;99.90
51982;DHT22;37998;53.416;6.730;2023-09-18T05:55:09;18.40;99.90
51982;DHT22;37998;53.416;6.730;2023-09-18T05:57:36;18.40;99.90
51982;DHT22;37998;53.416;6.730;2023-09-18T06:00:04;18.40;99.90
51982;DHT22;37998;53.416;6.730;2023-09-18T06:02:38;18.40;99.90
51982;DHT22;37998;53.416;6.730;2023-09-18T06:05:04;18.40;99.90
51982;DHT22;37998;53.416;6.730;2023-09-18T06:07:31;18.50;99.90
51982;DHT22;37998;53.416;6.730;2023-09-18T06:09:57;18.50;99.90
51982;DHT22;37998;53.416;6.730;2023-09-18T06:12:24;18.50;99.90
51982;DHT22;37998;53.416;6.730;2023-09-18T06:14:50;18.50;99.90
51982;DHT22;37998;53.416;6.730;2023-09-18T06:17:17;18.50;99.90
51982;DHT22;37998;53.416;6.730;2023-09-18T06:19:44;18.60;99.90
51982;DHT22;37998;53.416;6.730;2023-09-18T06:22:11;18.60;99.90
51982;DHT22;37998;53.416;6.730;2023-09-18T06:24:40;18.60;99.90
51982;DHT22;37998;53.416;6.730;2023-09-18T06:27:06;18.60;99.90
51982;DHT22;37998;53.416;6.730;2023-09-18T06:29:33;18.60;99.90
51982;DHT22;37998;53.416;6.730;2023-09-18T06:31:59;18.60;99.90
51982;DHT22;37998;53.416;6.730;2023-09-18T06:34:25;18.60;99.90
51982;DHT22;37998;53.416;6.730;2023-09-18T06:36:51;18.70;99.90
51982;DHT22;37998;53.416;6.730;2023-09-18T06:39:17;18.70;99.90
51982;DHT22;37998;53.416;6.730;2023-09-18T06:41:43;18.70;99.90
51982;DHT22;37998;53.416;6.730;2023-09-18T06:44:12;18.70;99.90
51982;DHT22;37998;53.416;6.730;2023-09-18T06:46:37;18.90;99.90
51982;DHT22;37998;53.416;6.730;2023-09-18T06:49:05;18.70;99.90
51982;DHT22;37998;53.416;6.730;2023-09-18T06:51:31;18.70;99.90
51982;DHT22;37998;53.416;6.730;2023-09-18T06:53:57;18.70;99.90
51982;DHT22;37998;53.416;6.730;2023-09-18T06:56:24;18.70;99.90
51982;DHT22;37998;53.416;6.730;2023-09-18T06:58:50;18.70;99.90
51982;DHT22;37998;53.416;6.730;2023-09-18T07:01:22;18.70;99.90
51982;DHT22;37998;53.416;6.730;2023-09-18T07:03:50;18.70;99.90
51982;DHT22;37998;53.416;6.730;2023-09-18T07:06:16;18.70;99.90
51982;DHT22;37998;53.416;6.730;2023-09-18T07:08:44;18.70;99.90
51982;DHT22;37998;53.416;6.730;2023-09-18T07:11:10;18.70;99.90
51982;DHT22;37998;53.416;6.730;2023-09-18T07:13:38;18.70;99.90
51982;DHT22;37998;53.416;6.730;2023-09-18T07:16:05;18.70;99.90
51982;DHT22;37998;53.416;6.730;2023-09-18T07:18:31;18.70;99.90
51982;DHT22;37998;53.416;6.730;2023-09-18T07:20:57;18.70;99.90
51982;DHT22;37998;53.416;6.730;2023-09-18T07:23:23;18.70;99.90
51982;DHT22;37998;53.416;6.730;2023-09-18T07:25:49;18.70;99.90
51982;DHT22;37998;53.416;6.730;2023-09-18T07:28:15;18.80;99.90
51982;DHT22;37998;53.416;6.730;2023-09-18T07:30:43;18.80;99.90
51982;DHT22;37998;53.416;6.730;2023-09-18T07:33:10;18.80;99.90
51982;DHT22;37998;53.416;6.730;2023-09-18T07:35:36;18.80;99.90
51982;DHT22;37998;53.416;6.730;2023-09-18T07:38:02;18.80;99.90
51982;DHT22;37998;53.416;6.730;2023-09-18T07:40:28;18.80;99.90
51982;DHT22;37998;53.416;6.730;2023-09-18T07:42:54;18.80;99.90
51982;DHT22;37998;53.416;6.730;2023-09-18T07:45:20;18.70;99.90
51982;DHT22;37998;53.416;6.730;2023-09-18T07:47:46;18.70;99.90
51982;DHT22;37998;53.416;6.730;2023-09-18T07:50:12;18.70;99.90
51982;DHT22;37998;53.416;6.730;2023-09-18T07:52:38;18.70;99.90
51982;DHT22;37998;53.416;6.730;2023-09-18T07:55:04;18.60;99.90
51982;DHT22;37998;53.416;6.730;2023-09-18T07:57:30;18.60;99.90
51982;DHT22;37998;53.416;6.730;2023-09-18T08:00:00;18.60;99.90
51982;DHT22;37998;53.416;6.730;2023-09-18T08:02:38;18.60;99.90
51982;DHT22;37998;53.416;6.730;2023-09-18T08:05:05;18.60;99.90
51982;DHT22;37998;53.416;6.730;2023-09-18T08:07:31;18.60;99.90
51982;DHT22;37998;53.416;6.730;2023-09-18T08:09:57;18.60;99.90
51982;DHT22;37998;53.416;6.730;2023-09-18T08:12:24;18.50;99.90
51982;DHT22;37998;53.416;6.730;2023-09-18T08:14:50;18.60;99.90
51982;DHT22;37998;53.416;6.730;2023-09-18T08:17:16;18.60;99.90
51982;DHT22;37998;53.416;6.730;2023-09-18T08:19:43;18.60;99.90
51982;DHT22;37998;53.416;6.730;2023-09-18T08:22:10;18.60;99.90
51982;DHT22;37998;53.416;6.730;2023-09-18T08:24:41;18.60;99.90
51982;DHT22;37998;53.416;6.730;2023-09-18T08:27:07;18.60;99.90
51982;DHT22;37998;53.416;6.730;2023-09-18T08:29:33;18.60;99.90
51982;DHT22;37998;53.416;6.730;2023-09-18T08:32:02;18.60;99.90
51982;DHT22;37998;53.416;6.730;2023-09-18T08:34:28;18.60;99.90
51982;DHT22;37998;53.416;6.730;2023-09-18T08:36:54;18.70;99.90
51982;DHT22;37998;53.416;6.730;2023-09-18T08:39:21;18.70;99.90
51982;DHT22;37998;53.416;6.730;2023-09-18T08:41:51;18.60;99.90
51982;DHT22;37998;53.416;6.730;2023-09-18T08:44:24;18.60;99.90
51982;DHT22;37998;53.416;6.730;2023-09-18T08:46:56;18.70;99.90
51982;DHT22;37998;53.416;6.730;2023-09-18T08:49:26;18.70;99.90
51982;DHT22;37998;53.416;6.730;2023-09-18T08:51:55;18.70;99.90
51982;DHT22;37998;53.416;6.730;2023-09-18T08:54:22;18.70;99.90
51982;DHT22;37998;53.416;6.730;2023-09-18T08:56:52;18.70;99.90
51982;DHT22;37998;53.416;6.730;2023-09-18T08:59:21;18.70;99.90
51982;DHT22;37998;53.416;6.730;2023-09-18T09:01:48;18.70;99.90
51982;DHT22;37998;53.416;6.730;2023-09-18T09:04:14;18.70;99.90
51982;DHT22;37998;53.416;6.730;2023-09-18T09:06:40;18.70;99.90
51982;DHT22;37998;53.416;6.730;2023-09-18T09:09:06;18.70;99.90
51982;DHT22;37998;53.416;6.730;2023-09-18T09:11:34;18.70;99.90
51982;DHT22;37998;53.416;6.730;2023-09-18T09:14:09;18.70;99.90
51982;DHT22;37998;53.416;6.730;2023-09-18T09:16:50;18.70;99.90
51982;DHT22;37998;53.416;6.730;2023-09-18T09:19:17;18.70;99.90
51982;DHT22;37998;53.416;6.730;2023-09-18T09:21:44;18.80;99.90
51982;DHT22;37998;53.416;6.730;2023-09-18T09:24:11;18.80;99.90
51982;DHT22;37998;53.416;6.730;2023-09-18T09:26:40;18.80;99.90
51982;DHT22;37998;53.416;6.730;2023-09-18T09:29:18;18.80;99.90
51982;DHT22;37998;53.416;6.730;2023-09-18T09:31:44;18.90;99.90
51982;DHT22;37998;53.416;6.730;2023-09-18T09:34:12;18.90;99.90
51982;DHT22;37998;53.416;6.730;2023-09-18T09:36:54;18.90;99.90
51982;DHT22;37998;53.416;6.730;2023-09-18T09:39:21;18.90;99.90
51982;DHT22;37998;53.416;6.730;2023-09-18T09:41:54;18.90;99.90
51982;DHT22;37998;53.416;6.730;2023-09-18T09:44:21;18.90;99.90
51982;DHT22;37998;53.416;6.730;2023-09-18T09:46:48;19.00;99.90
51982;DHT22;37998;53.416;6.730;2023-09-18T09:49:14;19.00;99.90
51982;DHT22;37998;53.416;6.730;2023-09-18T09:51:41;19.00;99.90
51982;DHT22;37998;53.416;6.730;2023-09-18T09:54:07;19.10;99.90
51982;DHT22;37998;53.416;6.730;2023-09-18T09:56:48;19.20;99.90
51982;DHT22;37998;53.416;6.730;2023-09-18T09:59:16;19.30;99.90
51982;DHT22;37998;53.416;6.730;2023-09-18T10:01:51;19.30;99.90
51982;DHT22;37998;53.416;6.730;2023-09-18T10:04:18;19.30;99.90
51982;DHT22;37998;53.416;6.730;2023-09-18T10:06:52;19.30;99.90
51982;DHT22;37998;53.416;6.730;2023-09-18T10:09:21;19.40;99.90
51982;DHT22;37998;53.416;6.730;2023-09-18T10:11:54;19.40;99.90
51982;DHT22;37998;53.416;6.730;2023-09-18T10:14:29;19.40;99.90
51982;DHT22;37998;53.416;6.730;2023-09-18T10:16:59;19.50;99.90
51982;DHT22;37998;53.416;6.730;2023-09-18T10:19:34;19.50;99.90
51982;DHT22;37998;53.416;6.730;2023-09-18T10:24:51;19.60;99.90
51982;DHT22;37998;53.416;6.730;2023-09-18T10:27:20;19.60;99.90
51982;DHT22;37998;53.416;6.730;2023-09-18T10:29:49;19.70;99.90
51982;DHT22;37998;53.416;6.730;2023-09-18T10:32:17;19.70;99.90
51982;DHT22;37998;53.416;6.730;2023-09-18T10:34:47;19.70;99.90
51982;DHT22;37998;53.416;6.730;2023-09-18T10:37:15;19.80;99.90
51982;DHT22;37998;53.416;6.730;2023-09-18T10:39:42;19.80;99.90
51982;DHT22;37998;53.416;6.730;2023-09-18T10:42:10;19.90;99.90
51982;DHT22;37998;53.416;6.730;2023-09-18T10:44:38;20.00;99.90
51982;DHT22;37998;53.416;6.730;2023-09-18T10:47:07;20.00;99.90
51982;DHT22;37998;53.416;6.730;2023-09-18T10:49:34;20.10;99.90
51982;DHT22;37998;53.416;6.730;2023-09-18T10:52:01;20.20;99.90
51982;DHT22;37998;53.416;6.730;2023-09-18T10:54:28;20.30;99.90
51982;DHT22;37998;53.416;6.730;2023-09-18T10:56:57;20.30;99.90
51982;DHT22;37998;53.416;6.730;2023-09-18T10:59:23;20.40;99.90
51982;DHT22;37998;53.416;6.730;2023-09-18T11:01:49;20.40;99.90
51982;DHT22;37998;53.416;6.730;2023-09-18T11:04:19;20.50;99.90
51982;DHT22;37998;53.416;6.730;2023-09-18T11:09:22;20.70;99.90
51982;DHT22;37998;53.416;6.730;2023-09-18T11:12:03;20.90;99.90
51982;DHT22;37998;53.416;6.730;2023-09-18T11:22:39;21.20;99.90
51982;DHT22;37998;53.416;6.730;2023-09-18T11:28:22;21.40;99.90
51982;DHT22;37998;53.416;6.730;2023-09-18T11:30:51;21.60;99.90
51982;DHT22;37998;53.416;6.730;2023-09-18T11:33:34;21.80;99.90
51982;DHT22;37998;53.416;6.730;2023-09-18T11:36:05;21.90;99.90
51982;DHT22;37998;53.416;6.730;2023-09-18T11:38:34;22.10;99.90
51982;DHT22;37998;53.416;6.730;2023-09-18T11:41:19;22.20;99.90
51982;DHT22;37998;53.416;6.730;2023-09-18T11:43:46;22.20;99.90
51982;DHT22;37998;53.416;6.730;2023-09-18T11:46:18;22.20;99.90
51982;DHT22;37998;53.416;6.730;2023-09-18T11:48:46;22.20;99.90
51982;DHT22;37998;53.416;6.730;2023-09-18T11:51:12;22.10;99.90
51982;DHT22;37998;53.416;6.730;2023-09-18T11:53:40;22.10;99.90
51982;DHT22;37998;53.416;6.730;2023-09-18T11:56:10;22.20;99.90
51982;DHT22;37998;53.416;6.730;2023-09-18T11:58:48;22.30;99.90
51982;DHT22;37998;53.416;6.730;2023-09-18T12:01:14;22.40;99.90
51982;DHT22;37998;53.416;6.730;2023-09-18T12:03:41;22.40;99.90
51982;DHT22;37998;53.416;6.730;2023-09-18T12:06:07;22.50;99.90
51982;DHT22;37998;53.416;6.730;2023-09-18T12:08:37;22.60;99.90
51982;DHT22;37998;53.416;6.730;2023-09-18T12:11:06;22.60;99.90
51982;DHT22;37998;53.416;6.730;2023-09-18T12:13:32;22.50;99.90
51982;DHT22;37998;53.416;6.730;2023-09-18T12:15:59;22.50;99.90
51982;DHT22;37998;53.416;6.730;2023-09-18T12:18:27;22.50;99.90
51982;DHT22;37998;53.416;6.730;2023-09-18T12:20:58;22.40;99.90
51982;DHT22;37998;53.416;6.730;2023-09-18T12:23:24;22.30;99.90
51982;DHT22;37998;53.416;6.730;2023-09-18T12:25:57;22.30;99.90
51982;DHT22;37998;53.416;6.730;2023-09-18T12:28:25;22.20;99.90
51982;DHT22;37998;53.416;6.730;2023-09-18T12:30:54;22.10;99.90
51982;DHT22;37998;53.416;6.730;2023-09-18T12:33:25;21.90;99.90
51982;DHT22;37998;53.416;6.730;2023-09-18T12:35:52;21.90;99.90
51982;DHT22;37998;53.416;6.730;2023-09-18T12:38:19;21.80;99.90
51982;DHT22;37998;53.416;6.730;2023-09-18T12:40:49;21.70;99.90
51982;DHT22;37998;53.416;6.730;2023-09-18T12:43:15;21.70;99.90
51982;DHT22;37998;53.416;6.730;2023-09-18T12:45:45;21.70;99.90
51982;DHT22;37998;53.416;6.730;2023-09-18T12:48:13;21.90;99.90
51982;DHT22;37998;53.416;6.730;2023-09-18T12:50:39;22.00;99.90
51982;DHT22;37998;53.416;6.730;2023-09-18T12:53:13;22.10;99.90
51982;DHT22;37998;53.416;6.730;2023-09-18T12:55:40;22.10;99.90
51982;DHT22;37998;53.416;6.730;2023-09-18T12:58:10;22.00;99.90
51982;DHT22;37998;53.416;6.730;2023-09-18T13:00:37;21.90;99.90
51982;DHT22;37998;53.416;6.730;2023-09-18T13:03:06;21.90;99.90
51982;DHT22;37998;53.416;6.730;2023-09-18T13:05:32;21.90;99.90
51982;DHT22;37998;53.416;6.730;2023-09-18T13:08:04;21.90;99.90
51982;DHT22;37998;53.416;6.730;2023-09-18T13:13:06;21.90;99.90
51982;DHT22;37998;53.416;6.730;2023-09-18T13:15:33;21.90;99.90
51982;DHT22;37998;53.416;6.730;2023-09-18T13:18:09;22.00;99.90
51982;DHT22;37998;53.416;6.730;2023-09-18T13:20:36;22.10;99.90
51982;DHT22;37998;53.416;6.730;2023-09-18T13:23:02;22.10;99.90
51982;DHT22;37998;53.416;6.730;2023-09-18T13:25:48;22.20;99.90
51982;DHT22;37998;53.416;6.730;2023-09-18T13:28:14;22.30;99.90
51982;DHT22;37998;53.416;6.730;2023-09-18T13:30:42;22.40;99.90
51982;DHT22;37998;53.416;6.730;2023-09-18T13:33:10;22.40;99.90
51982;DHT22;37998;53.416;6.730;2023-09-18T13:35:37;22.20;99.90
51982;DHT22;37998;53.416;6.730;2023-09-18T13:38:05;22.10;99.90
51982;DHT22;37998;53.416;6.730;2023-09-18T13:40:32;22.00;99.90
51982;DHT22;37998;53.416;6.730;2023-09-18T13:42:59;22.00;99.90
51982;DHT22;37998;53.416;6.730;2023-09-18T13:45:25;22.00;99.90
51982;DHT22;37998;53.416;6.730;2023-09-18T13:47:51;22.00;99.90
51982;DHT22;37998;53.416;6.730;2023-09-18T13:50:17;22.00;99.90
51982;DHT22;37998;53.416;6.730;2023-09-18T13:52:43;21.90;99.90
51982;DHT22;37998;53.416;6.730;2023-09-18T13:55:09;21.90;99.90
51982;DHT22;37998;53.416;6.730;2023-09-18T13:57:35;21.90;99.90
51982;DHT22;37998;53.416;6.730;2023-09-18T14:00:03;22.00;99.90
51982;DHT22;37998;53.416;6.730;2023-09-18T14:02:41;22.10;99.90
51982;DHT22;37998;53.416;6.730;2023-09-18T14:05:08;22.10;99.90
51982;DHT22;37998;53.416;6.730;2023-09-18T14:07:35;22.20;99.90
51982;DHT22;37998;53.416;6.730;2023-09-18T14:10:06;22.30;99.90
51982;DHT22;37998;53.416;6.730;2023-09-18T14:12:33;22.40;99.90
51982;DHT22;37998;53.416;6.730;2023-09-18T14:14:58;22.40;99.90
51982;DHT22;37998;53.416;6.730;2023-09-18T14:17:25;22.40;99.90
51982;DHT22;37998;53.416;6.730;2023-09-18T14:19:51;22.50;99.90
51982;DHT22;37998;53.416;6.730;2023-09-18T14:22:19;22.50;99.90
51982;DHT22;37998;53.416;6.730;2023-09-18T14:24:47;22.50;99.90
51982;DHT22;37998;53.416;6.730;2023-09-18T14:27:13;22.60;99.90
51982;DHT22;37998;53.416;6.730;2023-09-18T14:29:39;22.50;99.90
51982;DHT22;37998;53.416;6.730;2023-09-18T14:32:05;22.60;99.90
51982;DHT22;37998;53.416;6.730;2023-09-18T14:34:34;22.60;99.90
51982;DHT22;37998;53.416;6.730;2023-09-18T14:37:04;22.70;99.90
51982;DHT22;37998;53.416;6.730;2023-09-18T14:39:31;22.70;99.90
51982;DHT22;37998;53.416;6.730;2023-09-18T14:41:59;22.70;99.90
51982;DHT22;37998;53.416;6.730;2023-09-18T14:44:28;22.80;99.90
51982;DHT22;37998;53.416;6.730;2023-09-18T14:46:54;22.70;99.90
51982;DHT22;37998;53.416;6.730;2023-09-18T14:49:20;22.70;99.90
51982;DHT22;37998;53.416;6.730;2023-09-18T14:51:46;22.70;99.90
51982;DHT22;37998;53.416;6.730;2023-09-18T14:54:13;22.70;99.90
51982;DHT22;37998;53.416;6.730;2023-09-18T14:56:40;22.60;99.90
51982;DHT22;37998;53.416;6.730;2023-09-18T14:59:06;22.50;99.90
51982;DHT22;37998;53.416;6.730;2023-09-18T15:01:33;22.40;99.90
51982;DHT22;37998;53.416;6.730;2023-09-18T15:03:59;22.40;99.90
51982;DHT22;37998;53.416;6.730;2023-09-18T15:06:25;22.30;99.90
51982;DHT22;37998;53.416;6.730;2023-09-18T15:08:53;22.30;99.90
51982;DHT22;37998;53.416;6.730;2023-09-18T15:11:19;22.30;99.90
51982;DHT22;37998;53.416;6.730;2023-09-18T15:13:45;22.30;99.90
51982;DHT22;37998;53.416;6.730;2023-09-18T15:16:11;22.30;99.90
51982;DHT22;37998;53.416;6.730;2023-09-18T15:18:41;22.20;99.90
51982;DHT22;37998;53.416;6.730;2023-09-18T15:21:10;22.20;99.90
51982;DHT22;37998;53.416;6.730;2023-09-18T15:23:36;22.10;99.90
51982;DHT22;37998;53.416;6.730;2023-09-18T15:26:02;22.00;99.90
51982;DHT22;37998;53.416;6.730;2023-09-18T15:28:28;22.10;99.90
51982;DHT22;37998;53.416;6.730;2023-09-18T15:30:55;22.10;99.90
51982;DHT22;37998;53.416;6.730;2023-09-18T15:33:22;22.10;99.90
51982;DHT22;37998;53.416;6.730;2023-09-18T15:35:52;22.20;99.90
51982;DHT22;37998;53.416;6.730;2023-09-18T15:38:18;22.20;99.90
51982;DHT22;37998;53.416;6.730;2023-09-18T15:40:44;22.00;99.90
51982;DHT22;37998;53.416;6.730;2023-09-18T15:43:10;22.00;99.90
51982;DHT22;37998;53.416;6.730;2023-09-18T15:45:36;21.90;99.90
51982;DHT22;37998;53.416;6.730;2023-09-18T15:48:03;21.90;99.90
51982;DHT22;37998;53.416;6.730;2023-09-18T15:50:31;22.00;99.90
51982;DHT22;37998;53.416;6.730;2023-09-18T15:52:57;21.90;99.90